createdAt,value
2023-02-18T00:01:11.909Z,98691.09
2023-02-18T00:03:42.204Z,98683.56
2023-02-18T00:06:16.871Z,98681.22
2023-02-18T00:08:47.216Z,98686.06
2023-02-18T00:11:17.822Z,98682.25
2023-02-18T00:13:54.649Z,98675.31
2023-02-18T00:16:24.978Z,98679.28
2023-02-18T00:18:57.501Z,98678.09
2023-02-18T00:21:27.138Z,98681.97
2023-02-18T00:23:57.106Z,98684.25
2023-02-18T00:26:26.726Z,98687.34
2023-02-18T00:28:57.253Z,98691.38
2023-02-18T00:31:29.834Z,98691.44
2023-02-18T00:34:01.630Z,98704.66
2023-02-18T00:36:31.220Z,98698.78
2023-02-18T00:39:04.029Z,98699.59
2023-02-18T00:41:34.331Z,98707.94
2023-02-18T00:44:05.621Z,98712.94
2023-02-18T00:46:37.055Z,98707.38
2023-02-18T00:49:07.452Z,98712.06
2023-02-18T00:51:38.326Z,98706.31
2023-02-18T00:54:07.580Z,98698.34
2023-02-18T00:56:37.150Z,98699.44
2023-02-18T00:59:07.921Z,98705.31
2023-02-18T01:01:37.123Z,98707.59
2023-02-18T01:04:06.689Z,98707.16
2023-02-18T01:06:36.030Z,98699.22
2023-02-18T01:09:05.823Z,98697.31
2023-02-18T01:11:35.143Z,98688.28
2023-02-18T01:14:04.555Z,98689.88
2023-02-18T01:16:35.073Z,98683.88
2023-02-18T01:19:04.381Z,98679.72
2023-02-18T01:21:33.524Z,98687.41
2023-02-18T01:24:02.934Z,98687.25
2023-02-18T01:26:32.127Z,98690.50
2023-02-18T01:29:01.197Z,98694.91
2023-02-18T01:31:30.474Z,98694.22
2023-02-18T01:34:02.684Z,98690.78
2023-02-18T01:36:31.792Z,98691.81
2023-02-18T01:39:00.850Z,98686.91
2023-02-18T01:41:30.182Z,98686.28
2023-02-18T01:44:17.227Z,98681.09
2023-02-18T01:46:49.250Z,98684.06
2023-02-18T01:49:25.412Z,98682.69
2023-02-18T01:52:01.276Z,98695.75
2023-02-18T01:54:36.725Z,98675.31
2023-02-18T01:57:08.765Z,98678.34
2023-02-18T01:59:42.810Z,98674.38
2023-02-18T02:02:16.574Z,98674.53
2023-02-18T02:04:47.834Z,98678.63
2023-02-18T02:07:19.301Z,98672.88
2023-02-18T02:09:51.372Z,98659.28
2023-02-18T02:12:41.611Z,98666.19
2023-02-18T02:15:30.593Z,98663.97
2023-02-18T02:18:23.479Z,98666.47
2023-02-18T02:21:41.573Z,98653.84
2023-02-18T02:24:37.691Z,98655.38
2023-02-18T02:27:27.444Z,98647.88
2023-02-18T02:30:49.960Z,98650.66
2023-02-18T02:34:06.642Z,98649.19
2023-02-18T02:36:47.044Z,98646.41
2023-02-18T02:39:24.516Z,98637.25
2023-02-18T02:42:07.970Z,98635.69
2023-02-18T02:44:45.912Z,98632.50
2023-02-18T02:47:39.427Z,98623.63
2023-02-18T02:50:15.020Z,98629.66
2023-02-18T02:52:51.597Z,98625.00
2023-02-18T02:55:22.791Z,98637.91
2023-02-18T02:57:57.119Z,98630.03
2023-02-18T03:00:48.718Z,98634.13
2023-02-18T03:03:40.211Z,98632.69
2023-02-18T03:06:37.028Z,98637.03
2023-02-18T03:09:15.249Z,98636.31
2023-02-18T03:11:52.845Z,98623.13
2023-02-18T03:14:31.256Z,98631.34
2023-02-18T03:17:05.008Z,98620.53
2023-02-18T03:19:39.049Z,98621.81
2023-02-18T03:22:14.698Z,98612.84
2023-02-18T03:24:48.171Z,98620.47
2023-02-18T03:27:22.836Z,98635.09
2023-02-18T03:29:59.128Z,98635.50
2023-02-18T03:32:30.592Z,98640.34
2023-02-18T03:35:09.012Z,98654.34
2023-02-18T03:37:43.367Z,98649.41
2023-02-18T03:40:15.127Z,98642.66
2023-02-18T03:42:44.209Z,98650.50
2023-02-18T03:45:13.824Z,98650.38
2023-02-18T03:47:43.998Z,98654.53
2023-02-18T03:50:13.102Z,98648.78
2023-02-18T03:52:42.164Z,98651.59
2023-02-18T03:55:13.143Z,98652.28
2023-02-18T03:57:42.295Z,98661.63
2023-02-18T04:00:12.699Z,98664.72
2023-02-18T04:02:44.737Z,98651.69
2023-02-18T04:05:14.308Z,98653.72
2023-02-18T04:07:43.440Z,98655.91
2023-02-18T04:10:14.193Z,98655.19
2023-02-18T04:12:43.309Z,98666.59
2023-02-18T04:15:13.890Z,98665.25
2023-02-18T04:17:43.041Z,98653.72
2023-02-18T04:20:13.391Z,98648.41
2023-02-18T04:22:42.517Z,98653.59
2023-02-18T04:25:13.068Z,98654.13
2023-02-18T04:27:42.209Z,98645.03
2023-02-18T04:30:12.481Z,98659.00
2023-02-18T04:32:41.927Z,98655.00
2023-02-18T04:35:11.002Z,98643.00
2023-02-18T04:37:40.058Z,98645.72
2023-02-18T04:40:10.830Z,98660.34
2023-02-18T04:42:41.364Z,98648.97
2023-02-18T04:45:11.012Z,98648.34
2023-02-18T04:47:40.203Z,98655.88
2023-02-18T04:50:10.980Z,98649.16
2023-02-18T04:52:40.069Z,98649.13
2023-02-18T04:55:09.697Z,98648.19
2023-02-18T04:57:40.206Z,98646.03
2023-02-18T05:00:14.513Z,98654.38
2023-02-18T05:02:43.794Z,98646.41
2023-02-18T05:05:13.739Z,98654.91
2023-02-18T05:07:43.491Z,98655.41
2023-02-18T05:10:16.333Z,98639.88
2023-02-18T05:12:46.840Z,98650.69
2023-02-18T05:15:15.903Z,98650.25
2023-02-18T05:17:45.029Z,98660.28
2023-02-18T05:20:14.927Z,98654.72
2023-02-18T05:22:44.257Z,98656.59
2023-02-18T05:25:13.411Z,98648.25
2023-02-18T05:27:42.629Z,98651.41
2023-02-18T05:30:14.064Z,98660.78
2023-02-18T05:32:43.323Z,98648.72
2023-02-18T05:35:13.641Z,98657.56
2023-02-18T05:37:42.942Z,98665.50
2023-02-18T05:40:13.306Z,98659.75
2023-02-18T05:42:42.385Z,98683.56
2023-02-18T05:45:12.986Z,98687.09
2023-02-18T05:47:42.085Z,98681.09
2023-02-18T05:50:11.860Z,98684.38
2023-02-18T05:52:40.989Z,98681.22
2023-02-18T05:55:10.159Z,98684.69
2023-02-18T05:57:39.301Z,98685.81
2023-02-18T06:00:10.473Z,98682.59
2023-02-18T06:02:41.165Z,98684.31
2023-02-18T06:05:11.356Z,98686.47
2023-02-18T06:07:40.916Z,98674.78
2023-02-18T06:10:12.402Z,98677.81
2023-02-18T06:12:42.256Z,98688.22
2023-02-18T06:15:12.474Z,98696.81
2023-02-18T06:17:43.565Z,98690.50
2023-02-18T06:20:14.429Z,98685.53
2023-02-18T06:22:44.351Z,98688.06
2023-02-18T06:25:14.254Z,98688.16
2023-02-18T06:27:46.821Z,98680.81
2023-02-18T06:30:17.406Z,98686.59
2023-02-18T06:32:48.856Z,98698.78
2023-02-18T06:35:18.958Z,98697.44
2023-02-18T06:37:49.145Z,98696.19
2023-02-18T06:40:19.891Z,98691.34
2023-02-18T06:42:54.065Z,98687.69
2023-02-18T06:45:24.056Z,98691.97
2023-02-18T06:47:55.477Z,98685.63
2023-02-18T06:50:25.187Z,98687.41
2023-02-18T06:52:55.278Z,98699.84
2023-02-18T06:55:25.116Z,98702.78
2023-02-18T06:57:55.059Z,98709.41
2023-02-18T07:00:24.963Z,98712.69
2023-02-18T07:02:56.554Z,98707.22
2023-02-18T07:05:26.406Z,98709.66
2023-02-18T07:07:56.382Z,98720.13
2023-02-18T07:10:26.933Z,98705.00
2023-02-18T07:12:56.647Z,98716.97
2023-02-18T07:15:28.189Z,98717.78
2023-02-18T07:18:00.551Z,98716.28
2023-02-18T07:20:30.549Z,98723.56
2023-02-18T07:23:00.545Z,98730.09
2023-02-18T07:25:30.473Z,98719.06
2023-02-18T07:28:00.536Z,98735.81
2023-02-18T07:30:32.752Z,98723.88
2023-02-18T07:33:04.598Z,98726.72
2023-02-18T07:35:34.672Z,98721.25
2023-02-18T07:38:04.850Z,98729.50
2023-02-18T07:40:36.019Z,98725.66
2023-02-18T07:43:05.803Z,98729.75
2023-02-18T07:45:38.408Z,98724.38
2023-02-18T07:48:10.051Z,98738.53
2023-02-18T07:50:42.012Z,98732.78
2023-02-18T07:53:14.362Z,98733.78
2023-02-18T07:55:51.010Z,98733.56
2023-02-18T07:58:22.888Z,98734.94
2023-02-18T08:01:06.289Z,98735.94
2023-02-18T08:03:37.814Z,98733.63
2023-02-18T08:46:08.935Z,98740.72
2023-02-18T08:48:45.064Z,98741.22
2023-02-18T08:51:17.315Z,98741.25
2023-02-18T08:53:47.286Z,98743.28
2023-02-18T08:56:17.256Z,98739.28
2023-02-18T08:58:46.491Z,98738.84
2023-02-18T09:01:16.914Z,98743.25
2023-02-18T09:03:46.101Z,98750.50
2023-02-18T09:06:15.122Z,98744.06
2023-02-18T09:08:44.170Z,98742.06
2023-02-18T09:11:13.551Z,98738.88
2023-02-18T09:13:42.893Z,98748.09
2023-02-18T09:16:15.209Z,98736.06
2023-02-18T09:18:46.385Z,98736.88
2023-02-18T09:21:20.748Z,98733.69
2023-02-18T09:23:52.028Z,98731.28
2023-02-18T09:26:25.027Z,98724.84
2023-02-18T09:28:57.159Z,98731.63
2023-02-18T09:31:28.208Z,98718.31
2023-02-18T09:34:01.928Z,98723.47
2023-02-18T09:36:31.705Z,98731.81
2023-02-18T09:39:01.683Z,98723.69
2023-02-18T09:41:39.645Z,98731.59
2023-02-18T09:44:17.262Z,98732.41
2023-02-18T09:46:53.303Z,98738.69
2023-02-18T09:49:28.142Z,98737.84
2023-02-18T09:52:02.208Z,98734.56
2023-02-18T09:54:31.245Z,98736.00
2023-02-18T09:57:01.002Z,98739.53
2023-02-18T09:59:32.143Z,98735.69
2023-02-18T10:02:03.228Z,98734.66
2023-02-18T10:04:42.851Z,98733.94
2023-02-18T10:07:23.094Z,98726.81
2023-02-18T10:09:55.309Z,98720.13
2023-02-18T10:12:27.407Z,98711.56
2023-02-18T10:14:59.985Z,98714.50
2023-02-18T10:17:34.195Z,98711.72
2023-02-18T10:20:07.984Z,98721.72
2023-02-18T10:22:39.995Z,98720.78
2023-02-18T10:25:10.460Z,98708.44
2023-02-18T10:27:42.135Z,98701.34
2023-02-18T10:30:25.552Z,98701.47
2023-02-18T10:33:02.831Z,98701.50
2023-02-18T10:35:42.078Z,98695.84
2023-02-18T10:38:19.830Z,98689.66
2023-02-18T10:41:02.047Z,98673.84
2023-02-18T10:43:43.880Z,98676.72
2023-02-18T10:46:23.993Z,98672.94
2023-02-18T10:49:11.840Z,98675.03
2023-02-18T10:51:49.093Z,98666.81
2023-02-18T10:54:18.897Z,98663.09
2023-02-18T10:56:52.338Z,98661.59
2023-02-18T10:59:23.585Z,98664.13
2023-02-18T11:01:58.250Z,98661.38
2023-02-18T11:04:37.967Z,98654.72
2023-02-18T11:07:16.754Z,98655.03
2023-02-18T11:09:51.329Z,98648.34
2023-02-18T11:12:24.835Z,98632.72
2023-02-18T11:15:17.538Z,98636.91
2023-02-18T11:17:48.966Z,98617.78
2023-02-18T11:20:33.948Z,98610.41
2023-02-18T11:23:20.754Z,98609.84
2023-02-18T11:26:05.351Z,98606.13
2023-02-18T11:28:45.544Z,98603.44
2023-02-18T11:31:24.126Z,98594.94
2023-02-18T11:33:56.828Z,98589.06
2023-02-18T11:36:30.564Z,98583.50
2023-02-18T11:39:06.362Z,98579.31
2023-02-18T11:41:39.863Z,98573.63
2023-02-18T11:44:23.672Z,98563.06
2023-02-18T11:47:03.758Z,98561.00
2023-02-18T11:49:35.239Z,98552.94
2023-02-18T11:52:19.397Z,98542.31
2023-02-18T11:55:04.786Z,98540.03
2023-02-18T11:57:38.942Z,98539.16
2023-02-18T12:00:23.163Z,98521.06
2023-02-18T12:02:57.699Z,98507.88
2023-02-18T12:05:35.135Z,98503.50
2023-02-18T12:08:11.681Z,98495.06
2023-02-18T12:10:47.923Z,98486.88
2023-02-18T12:13:26.953Z,98494.31
2023-02-18T12:16:10.439Z,98497.00
2023-02-18T12:19:15.811Z,98473.34
2023-02-18T12:21:59.851Z,98464.06
2023-02-18T12:24:56.098Z,98468.22
2023-02-18T12:27:35.968Z,98451.53
2023-02-18T12:30:39.053Z,98446.81
2023-02-18T12:33:21.003Z,98437.66
2023-02-18T12:36:04.184Z,98419.59
2023-02-18T12:38:55.778Z,98425.88
2023-02-18T12:41:58.515Z,98418.47
2023-02-18T12:44:45.195Z,98427.03
2023-02-18T12:47:51.502Z,98422.81
2023-02-18T12:50:53.025Z,98412.41
2023-02-18T12:53:50.234Z,98414.28
2023-02-18T12:56:53.537Z,98411.19
2023-02-18T12:59:53.603Z,98413.38
2023-02-18T13:02:48.602Z,98409.00
2023-02-18T13:05:32.250Z,98403.03
2023-02-18T13:08:22.541Z,98386.22
2023-02-18T13:11:14.394Z,98387.59
2023-02-18T13:13:51.621Z,98390.97
2023-02-18T13:16:22.950Z,98387.19
2023-02-18T13:19:03.722Z,98386.66
2023-02-18T13:21:33.131Z,98380.34
2023-02-18T13:24:06.037Z,98368.47
2023-02-18T13:26:36.425Z,98375.25
2023-02-18T13:29:24.008Z,98363.03
2023-02-18T13:32:10.984Z,98366.53
2023-02-18T13:34:48.007Z,98347.84
2023-02-18T13:37:26.927Z,98354.50
2023-02-18T13:39:58.555Z,98348.97
2023-02-18T13:42:37.047Z,98348.75
2023-02-18T13:45:29.109Z,98326.16
2023-02-18T13:48:01.239Z,98333.47
2023-02-18T13:50:40.316Z,98341.28
2023-02-18T13:53:25.616Z,98340.50
2023-02-18T13:55:59.414Z,98337.19
2023-02-18T13:58:37.248Z,98329.75
2023-02-18T14:01:13.066Z,98323.75
2023-02-18T14:03:57.877Z,98315.63
2023-02-18T14:06:31.518Z,98322.69
2023-02-18T14:09:36.361Z,98314.81
2023-02-18T14:12:28.434Z,98323.06
2023-02-18T14:15:00.721Z,98319.53
2023-02-18T14:17:50.234Z,98321.31
2023-02-18T14:20:51.505Z,98318.91
2023-02-18T14:23:59.322Z,98314.53
2023-02-18T14:26:34.913Z,98312.34
2023-02-18T14:29:12.116Z,98316.06
2023-02-18T14:31:59.006Z,98305.09
2023-02-18T14:35:10.743Z,98318.56
2023-02-18T14:38:25.462Z,98303.09
2023-02-18T14:41:27.301Z,98308.50
2023-02-18T14:44:20.872Z,98304.06
2023-02-18T14:47:12.435Z,98301.28
2023-02-18T14:49:47.162Z,98299.63
2023-02-18T14:52:32.157Z,98304.91
2023-02-18T14:55:06.259Z,98300.34
2023-02-18T14:57:41.307Z,98286.84
2023-02-18T15:00:18.783Z,98279.28
2023-02-18T15:02:51.572Z,98282.38
2023-02-18T15:05:24.097Z,98272.53
2023-02-18T15:08:01.063Z,98283.25
2023-02-18T15:10:40.736Z,98283.00
2023-02-18T15:13:18.164Z,98267.63
2023-02-18T15:15:52.028Z,98259.34
2023-02-18T15:18:31.328Z,98260.56
2023-02-18T15:21:03.364Z,98261.63
2023-02-18T15:23:38.278Z,98242.72
2023-02-18T15:26:14.178Z,98239.47
2023-02-18T15:28:54.695Z,98224.06
2023-02-18T15:31:28.223Z,98235.41
2023-02-18T15:33:59.205Z,98242.63
2023-02-18T15:36:28.440Z,98239.41
2023-02-18T15:38:58.431Z,98240.41
2023-02-18T15:41:38.220Z,98220.56
2023-02-18T15:44:09.332Z,98229.41
2023-02-18T15:46:38.443Z,98228.84
2023-02-18T15:49:09.466Z,98230.81
2023-02-18T15:51:38.596Z,98228.53
2023-02-18T15:54:07.673Z,98221.13
2023-02-18T15:56:45.402Z,98215.44
2023-02-18T15:59:21.572Z,98208.09
2023-02-18T16:01:52.679Z,98204.28
2023-02-18T16:04:22.732Z,98195.91
2023-02-18T16:06:54.014Z,98200.75
2023-02-18T16:09:27.318Z,98194.00
2023-02-18T16:12:03.425Z,98187.28
2023-02-18T16:14:35.342Z,98199.41
2023-02-18T16:17:17.047Z,98186.69
2023-02-18T16:20:04.067Z,98184.63
2023-02-18T16:22:36.803Z,98188.34
2023-02-18T16:25:18.723Z,98183.41
2023-02-18T16:27:55.061Z,98181.97
2023-02-18T16:30:26.233Z,98188.94
2023-02-18T16:32:55.366Z,98175.16
2023-02-18T16:35:25.606Z,98189.34
2023-02-18T16:37:57.771Z,98193.50
2023-02-18T16:40:31.258Z,98185.91
2023-02-18T16:43:13.180Z,98184.06
2023-02-18T16:45:44.485Z,98186.84
2023-02-18T16:48:20.693Z,98173.50
2023-02-18T16:50:52.749Z,98180.94
2023-02-18T16:53:22.148Z,98176.72
2023-02-18T16:55:52.178Z,98185.72
2023-02-18T16:58:24.554Z,98174.22
2023-02-18T17:00:53.765Z,98184.41
2023-02-18T17:03:23.117Z,98185.13
2023-02-18T17:05:54.697Z,98186.47
2023-02-18T17:08:28.923Z,98182.19
2023-02-18T17:10:59.631Z,98183.59
2023-02-18T17:13:31.656Z,98206.50
2023-02-18T17:16:03.662Z,98203.97
2023-02-18T17:18:33.317Z,98208.03
2023-02-18T17:21:03.599Z,98212.41
2023-02-18T17:23:32.539Z,98202.53
2023-02-18T17:26:01.490Z,98190.63
2023-02-18T17:28:31.994Z,98205.09
2023-02-18T17:31:01.034Z,98208.34
2023-02-18T17:33:30.026Z,98233.19
2023-02-18T17:36:01.348Z,98235.56
2023-02-18T17:38:30.339Z,98230.00
2023-02-18T17:40:59.260Z,98228.41
2023-02-18T17:43:28.277Z,98227.19
2023-02-18T17:46:00.405Z,98265.16
2023-02-18T17:48:29.828Z,98230.78
2023-02-18T17:50:59.412Z,98264.28
2023-02-18T17:53:29.631Z,98247.50
2023-02-18T17:55:58.540Z,98265.06
2023-02-18T17:58:27.719Z,98282.69
2023-02-18T18:00:59.385Z,98288.19
2023-02-18T18:03:28.516Z,98278.47
2023-02-18T18:05:57.715Z,98247.25
2023-02-18T18:08:26.691Z,98281.50
2023-02-18T18:10:58.782Z,98284.19
2023-02-18T18:13:34.669Z,98252.63
2023-02-18T18:16:05.969Z,98276.75
2023-02-18T18:18:36.941Z,98267.84
2023-02-18T18:21:06.968Z,98270.81
2023-02-18T18:23:36.099Z,98276.97
2023-02-18T18:26:05.451Z,98287.34
2023-02-18T18:28:36.128Z,98260.94
2023-02-18T18:31:08.097Z,98272.75
2023-02-18T18:33:37.350Z,98287.59
2023-02-18T18:36:10.314Z,98287.53
2023-02-18T18:38:40.398Z,98279.66
2023-02-18T18:41:15.330Z,98298.50
2023-02-18T18:43:44.321Z,98307.38
2023-02-18T18:46:14.959Z,98299.03
2023-02-18T18:48:43.986Z,98289.50
2023-02-18T18:51:17.161Z,98279.69
2023-02-18T18:53:46.259Z,98272.84
2023-02-18T18:56:15.413Z,98291.94
2023-02-18T18:58:44.532Z,98287.09
2023-02-18T19:01:18.886Z,98294.16
2023-02-18T19:03:48.538Z,98292.84
2023-02-18T19:06:18.360Z,98299.09
2023-02-18T19:08:47.944Z,98298.97
2023-02-18T19:11:18.337Z,98296.34
2023-02-18T19:13:47.437Z,98299.09
2023-02-18T19:16:22.333Z,98303.63
2023-02-18T19:18:51.720Z,98317.63
2023-02-18T19:21:21.043Z,98301.13
2023-02-18T19:23:50.443Z,98311.31
2023-02-18T19:26:20.587Z,98308.69
2023-02-18T19:28:49.668Z,98289.56
2023-02-18T19:31:24.011Z,98300.50
2023-02-18T19:33:54.352Z,98313.84
2023-02-18T19:36:23.467Z,98320.34
2023-02-18T19:38:52.778Z,98322.94
2023-02-18T19:41:21.771Z,98323.75
2023-02-18T19:43:50.769Z,98312.75
2023-02-18T19:46:21.249Z,98307.53
2023-02-18T19:48:52.620Z,98307.63
2023-02-18T19:51:23.170Z,98325.56
2023-02-18T19:53:52.825Z,98312.69
2023-02-18T19:56:21.788Z,98321.91
2023-02-18T19:58:50.772Z,98325.72
2023-02-18T20:01:28.709Z,98335.53
2023-02-18T20:03:57.674Z,98337.56
2023-02-18T20:06:26.631Z,98344.88
2023-02-18T20:08:55.584Z,98336.47
2023-02-18T20:11:24.706Z,98342.41
2023-02-18T20:13:53.796Z,98346.13
2023-02-18T20:16:24.153Z,98347.31
2023-02-18T20:18:54.034Z,98347.31
2023-02-18T20:21:26.300Z,98347.31
2023-02-18T20:23:56.069Z,98363.50
2023-02-18T20:26:25.612Z,98362.38
2023-02-18T20:28:54.509Z,98359.06
2023-02-18T20:31:24.964Z,98376.63
2023-02-18T20:33:57.259Z,98366.13
2023-02-18T20:36:27.855Z,98374.03
2023-02-18T20:39:02.452Z,98389.59
2023-02-18T20:41:37.114Z,98388.34
2023-02-18T20:44:06.694Z,98396.59
2023-02-18T20:46:38.135Z,98394.03
2023-02-18T20:49:09.058Z,98383.94
2023-02-18T20:51:38.590Z,98391.44
2023-02-18T20:54:10.230Z,98403.59
2023-02-18T20:56:40.746Z,98399.78
2023-02-18T20:59:12.686Z,98399.78
2023-02-18T21:01:43.868Z,98400.97
2023-02-18T21:04:13.818Z,98391.94
2023-02-18T21:06:45.404Z,98390.56
2023-02-18T21:09:15.661Z,98391.63
2023-02-18T21:11:45.597Z,98389.63
2023-02-18T21:14:14.610Z,98379.81
2023-02-18T21:30:20.968Z,98385.22
2023-02-18T21:32:50.030Z,98385.91
2023-02-18T21:35:19.185Z,98382.69
2023-02-18T21:37:48.204Z,98386.59
2023-02-18T21:40:17.497Z,98398.13
2023-02-18T21:42:47.440Z,98390.44
2023-02-18T21:45:20.333Z,98398.19
2023-02-18T21:47:50.924Z,98401.19
2023-02-18T21:50:20.140Z,98420.56
2023-02-18T21:52:49.063Z,98407.66
2023-02-18T21:55:18.294Z,98413.16
2023-02-18T21:57:47.220Z,98437.91
2023-02-18T22:00:21.047Z,98413.34
2023-02-18T22:02:51.777Z,98401.16
2023-02-18T22:05:21.459Z,98383.50
2023-02-18T22:07:50.520Z,98399.91
2023-02-18T22:10:20.084Z,98403.63
2023-02-18T22:12:49.359Z,98399.25
2023-02-18T22:15:18.663Z,98417.41
2023-02-18T22:17:47.953Z,98412.16
2023-02-18T22:20:19.575Z,98412.97
2023-02-18T22:22:48.546Z,98394.47
2023-02-18T22:25:17.579Z,98423.31
2023-02-18T22:27:46.682Z,98415.00
2023-02-18T22:30:18.835Z,98420.94
2023-02-18T22:32:47.906Z,98416.19
2023-02-18T22:35:18.600Z,98420.13
2023-02-18T22:37:47.574Z,98416.19
2023-02-18T22:40:16.712Z,98428.69
2023-02-18T22:42:45.755Z,98427.13
2023-02-18T22:45:14.686Z,98410.50
2023-02-18T22:47:43.834Z,98413.72
2023-02-18T22:50:12.806Z,98423.44
2023-02-18T22:52:43.638Z,98429.06
2023-02-18T22:55:12.680Z,98438.81
2023-02-18T22:57:42.130Z,98444.81
2023-02-18T23:00:13.458Z,98436.78
2023-02-18T23:02:42.611Z,98431.06
2023-02-18T23:05:11.569Z,98424.09
2023-02-18T23:07:41.977Z,98420.69
2023-02-18T23:10:11.013Z,98428.06
2023-02-18T23:12:40.010Z,98435.78
2023-02-18T23:15:11.034Z,98444.78
2023-02-18T23:17:41.465Z,98436.44
2023-02-18T23:20:11.407Z,98460.81
2023-02-18T23:22:41.975Z,98460.63
2023-02-18T23:25:12.581Z,98443.06
2023-02-18T23:27:41.558Z,98442.50
2023-02-18T23:30:12.819Z,98446.81
2023-02-18T23:32:41.796Z,98448.50
2023-02-18T23:35:10.732Z,98439.00
2023-02-18T23:37:57.228Z,98439.00
2023-02-18T23:40:27.613Z,98436.00
2023-02-18T23:42:57.246Z,98436.63
2023-02-18T23:45:26.428Z,98438.03
2023-02-18T23:47:55.367Z,98450.97
2023-02-18T23:50:24.645Z,98437.47
2023-02-18T23:52:54.200Z,98444.97
2023-02-18T23:55:23.244Z,98453.75
2023-02-18T23:57:53.529Z,98451.53
